sensor_id;sensor_type;location;lat;lon;timestamp;temperature;humidity
61591;DHT22;57639;52.410;-1.966;2022-11-10T00:00:11;16.20;62.80
61591;DHT22;57639;52.410;-1.966;2022-11-10T00:03:17;16.10;62.80
61591;DHT22;57639;52.410;-1.966;2022-11-10T00:06:23;16.10;62.80
61591;DHT22;57639;52.410;-1.966;2022-11-10T00:09:29;16.10;62.80
61591;DHT22;57639;52.410;-1.966;2022-11-10T00:12:37;16.10;62.90
61591;DHT22;57639;52.410;-1.966;2022-11-10T00:15:43;16.10;62.80
61591;DHT22;57639;52.410;-1.966;2022-11-10T00:19:05;16.10;62.80
61591;DHT22;57639;52.410;-1.966;2022-11-10T00:22:11;16.10;62.80
61591;DHT22;57639;52.410;-1.966;2022-11-10T00:25:17;16.10;62.90
61591;DHT22;57639;52.410;-1.966;2022-11-10T00:28:28;16.10;62.90
61591;DHT22;57639;52.410;-1.966;2022-11-10T00:31:36;16.10;62.90
61591;DHT22;57639;52.410;-1.966;2022-11-10T00:34:42;16.10;62.80
61591;DHT22;57639;52.410;-1.966;2022-11-10T00:37:48;16.10;62.80
61591;DHT22;57639;52.410;-1.966;2022-11-10T00:40:57;16.10;62.80
61591;DHT22;57639;52.410;-1.966;2022-11-10T00:44:06;16.00;62.80
61591;DHT22;57639;52.410;-1.966;2022-11-10T00:47:12;16.00;62.90
61591;DHT22;57639;52.410;-1.966;2022-11-10T00:50:18;16.00;62.80
61591;DHT22;57639;52.410;-1.966;2022-11-10T00:53:24;16.10;62.80
61591;DHT22;57639;52.410;-1.966;2022-11-10T00:56:30;16.00;62.80
61591;DHT22;57639;52.410;-1.966;2022-11-10T00:59:38;16.00;62.90
61591;DHT22;57639;52.410;-1.966;2022-11-10T01:02:44;16.00;62.80
61591;DHT22;57639;52.410;-1.966;2022-11-10T01:05:50;16.00;62.80
61591;DHT22;57639;52.410;-1.966;2022-11-10T01:08:56;16.00;62.70
61591;DHT22;57639;52.410;-1.966;2022-11-10T01:12:02;16.00;62.70
61591;DHT22;57639;52.410;-1.966;2022-11-10T01:15:11;16.00;62.70
61591;DHT22;57639;52.410;-1.966;2022-11-10T01:18:17;16.00;62.60
61591;DHT22;57639;52.410;-1.966;2022-11-10T01:21:23;16.00;62.70
61591;DHT22;57639;52.410;-1.966;2022-11-10T01:24:29;16.00;62.70
61591;DHT22;57639;52.410;-1.966;2022-11-10T01:27:35;16.00;62.60
61591;DHT22;57639;52.410;-1.966;2022-11-10T01:30:44;16.00;62.60
61591;DHT22;57639;52.410;-1.966;2022-11-10T01:33:50;16.00;62.60
61591;DHT22;57639;52.410;-1.966;2022-11-10T01:36:56;16.00;62.60
61591;DHT22;57639;52.410;-1.966;2022-11-10T01:40:03;16.00;62.60
61591;DHT22;57639;52.410;-1.966;2022-11-10T01:43:10;15.90;62.70
61591;DHT22;57639;52.410;-1.966;2022-11-10T01:46:19;15.90;62.70
61591;DHT22;57639;52.410;-1.966;2022-11-10T01:49:26;15.90;62.70
61591;DHT22;57639;52.410;-1.966;2022-11-10T01:52:34;15.90;62.70
61591;DHT22;57639;52.410;-1.966;2022-11-10T01:55:42;15.90;62.70
61591;DHT22;57639;52.410;-1.966;2022-11-10T01:58:52;15.90;62.70
61591;DHT22;57639;52.410;-1.966;2022-11-10T02:02:08;15.90;62.70
61591;DHT22;57639;52.410;-1.966;2022-11-10T02:05:15;15.90;62.70
61591;DHT22;57639;52.410;-1.966;2022-11-10T02:08:21;15.90;62.70
61591;DHT22;57639;52.410;-1.966;2022-11-10T02:11:28;15.90;62.70
61591;DHT22;57639;52.410;-1.966;2022-11-10T02:14:34;15.90;62.70
61591;DHT22;57639;52.410;-1.966;2022-11-10T02:17:45;15.80;62.70
61591;DHT22;57639;52.410;-1.966;2022-11-10T02:20:54;15.80;62.80
61591;DHT22;57639;52.410;-1.966;2022-11-10T02:24:00;15.80;62.80
61591;DHT22;57639;52.410;-1.966;2022-11-10T02:27:06;15.80;62.80
61591;DHT22;57639;52.410;-1.966;2022-11-10T02:30:13;15.80;62.70
61591;DHT22;57639;52.410;-1.966;2022-11-10T02:33:19;15.80;62.80
61591;DHT22;57639;52.410;-1.966;2022-11-10T02:36:28;15.80;62.80
61591;DHT22;57639;52.410;-1.966;2022-11-10T02:39:34;15.80;62.80
61591;DHT22;57639;52.410;-1.966;2022-11-10T02:42:40;15.80;62.80
61591;DHT22;57639;52.410;-1.966;2022-11-10T02:45:46;15.80;62.80
61591;DHT22;57639;52.410;-1.966;2022-11-10T02:48:52;15.80;62.80
61591;DHT22;57639;52.410;-1.966;2022-11-10T02:52:01;15.80;62.80
61591;DHT22;57639;52.410;-1.966;2022-11-10T02:55:07;15.80;62.80
61591;DHT22;57639;52.410;-1.966;2022-11-10T02:58:13;15.80;62.80
61591;DHT22;57639;52.410;-1.966;2022-11-10T03:01:19;15.80;62.80
61591;DHT22;57639;52.410;-1.966;2022-11-10T03:04:25;15.80;62.80
61591;DHT22;57639;52.410;-1.966;2022-11-10T03:07:34;15.80;62.70
61591;DHT22;57639;52.410;-1.966;2022-11-10T03:10:40;15.80;62.80
61591;DHT22;57639;52.410;-1.966;2022-11-10T03:13:46;15.80;62.70
61591;DHT22;57639;52.410;-1.966;2022-11-10T03:16:52;15.80;62.70
61591;DHT22;57639;52.410;-1.966;2022-11-10T03:19:58;15.80;62.80
61591;DHT22;57639;52.410;-1.966;2022-11-10T03:23:07;15.80;62.80
61591;DHT22;57639;52.410;-1.966;2022-11-10T03:26:13;15.80;62.80
61591;DHT22;57639;52.410;-1.966;2022-11-10T03:29:19;15.80;62.70
61591;DHT22;57639;52.410;-1.966;2022-11-10T03:32:25;15.80;62.70
61591;DHT22;57639;52.410;-1.966;2022-11-10T03:35:31;15.80;62.70
61591;DHT22;57639;52.410;-1.966;2022-11-10T03:38:39;15.70;62.80
61591;DHT22;57639;52.410;-1.966;2022-11-10T03:41:45;15.80;62.70
61591;DHT22;57639;52.410;-1.966;2022-11-10T03:44:51;15.80;62.70
61591;DHT22;57639;52.410;-1.966;2022-11-10T03:47:57;15.70;62.70
61591;DHT22;57639;52.410;-1.966;2022-11-10T03:51:03;15.70;62.70
61591;DHT22;57639;52.410;-1.966;2022-11-10T03:54:12;15.70;62.80
61591;DHT22;57639;52.410;-1.966;2022-11-10T03:57:18;15.70;62.80
61591;DHT22;57639;52.410;-1.966;2022-11-10T04:00:24;15.70;62.80
61591;DHT22;57639;52.410;-1.966;2022-11-10T04:03:31;15.70;62.90
61591;DHT22;57639;52.410;-1.966;2022-11-10T04:06:36;15.70;62.90
61591;DHT22;57639;52.410;-1.966;2022-11-10T04:10:01;15.70;63.00
61591;DHT22;57639;52.410;-1.966;2022-11-10T04:13:07;15.70;63.00
61591;DHT22;57639;52.410;-1.966;2022-11-10T04:16:28;15.70;63.00
61591;DHT22;57639;52.410;-1.966;2022-11-10T04:19:34;15.70;63.00
61591;DHT22;57639;52.410;-1.966;2022-11-10T04:22:40;15.60;63.10
61591;DHT22;57639;52.410;-1.966;2022-11-10T04:26:06;15.60;63.10
61591;DHT22;57639;52.410;-1.966;2022-11-10T04:29:28;15.60;63.10
61591;DHT22;57639;52.410;-1.966;2022-11-10T04:32:34;15.60;63.10
61591;DHT22;57639;52.410;-1.966;2022-11-10T04:35:40;15.60;63.20
61591;DHT22;57639;52.410;-1.966;2022-11-10T04:38:46;15.60;63.10
61591;DHT22;57639;52.410;-1.966;2022-11-10T04:41:54;15.60;63.00
61591;DHT22;57639;52.410;-1.966;2022-11-10T04:45:00;15.60;62.90
61591;DHT22;57639;52.410;-1.966;2022-11-10T04:48:06;15.60;62.90
61591;DHT22;57639;52.410;-1.966;2022-11-10T04:51:12;15.60;62.90
61591;DHT22;57639;52.410;-1.966;2022-11-10T04:54:19;15.70;62.90
61591;DHT22;57639;52.410;-1.966;2022-11-10T04:57:27;15.60;62.80
61591;DHT22;57639;52.410;-1.966;2022-11-10T05:00:33;15.60;62.80
61591;DHT22;57639;52.410;-1.966;2022-11-10T05:03:40;15.60;62.80
61591;DHT22;57639;52.410;-1.966;2022-11-10T05:06:46;15.60;62.90
61591;DHT22;57639;52.410;-1.966;2022-11-10T05:09:52;15.60;62.90
61591;DHT22;57639;52.410;-1.966;2022-11-10T05:13:01;15.60;63.00
61591;DHT22;57639;52.410;-1.966;2022-11-10T05:16:08;15.60;63.00
61591;DHT22;57639;52.410;-1.966;2022-11-10T05:19:14;15.60;63.00
61591;DHT22;57639;52.410;-1.966;2022-11-10T05:22:20;15.60;63.10
61591;DHT22;57639;52.410;-1.966;2022-11-10T05:25:26;15.60;63.00
61591;DHT22;57639;52.410;-1.966;2022-11-10T05:28:35;15.50;63.10
61591;DHT22;57639;52.410;-1.966;2022-11-10T05:31:41;15.50;63.20
61591;DHT22;57639;52.410;-1.966;2022-11-10T05:34:47;15.50;63.20
61591;DHT22;57639;52.410;-1.966;2022-11-10T05:37:53;15.60;63.10
61591;DHT22;57639;52.410;-1.966;2022-11-10T05:40:58;15.60;63.00
61591;DHT22;57639;52.410;-1.966;2022-11-10T05:44:07;15.60;62.90
61591;DHT22;57639;52.410;-1.966;2022-11-10T05:47:13;15.60;62.90
61591;DHT22;57639;52.410;-1.966;2022-11-10T05:50:20;15.60;62.80
61591;DHT22;57639;52.410;-1.966;2022-11-10T05:53:27;15.60;62.70
61591;DHT22;57639;52.410;-1.966;2022-11-10T05:56:33;15.60;62.70
61591;DHT22;57639;52.410;-1.966;2022-11-10T05:59:41;15.60;62.70
61591;DHT22;57639;52.410;-1.966;2022-11-10T06:02:56;15.60;62.80
61591;DHT22;57639;52.410;-1.966;2022-11-10T06:06:03;15.60;62.80
61591;DHT22;57639;52.410;-1.966;2022-11-10T06:09:09;15.60;62.80
61591;DHT22;57639;52.410;-1.966;2022-11-10T06:12:15;15.60;62.80
61591;DHT22;57639;52.410;-1.966;2022-11-10T06:15:24;15.60;62.80
61591;DHT22;57639;52.410;-1.966;2022-11-10T06:18:30;15.50;63.00
61591;DHT22;57639;52.410;-1.966;2022-11-10T06:21:36;15.50;62.90
61591;DHT22;57639;52.410;-1.966;2022-11-10T06:24:42;15.50;63.00
61591;DHT22;57639;52.410;-1.966;2022-11-10T06:27:48;15.50;63.10
61591;DHT22;57639;52.410;-1.966;2022-11-10T06:30:58;15.50;63.00
61591;DHT22;57639;52.410;-1.966;2022-11-10T06:34:04;15.50;63.00
61591;DHT22;57639;52.410;-1.966;2022-11-10T06:37:10;15.50;63.20
61591;DHT22;57639;52.410;-1.966;2022-11-10T06:40:16;15.50;63.10
61591;DHT22;57639;52.410;-1.966;2022-11-10T06:43:22;15.50;63.10
61591;DHT22;57639;52.410;-1.966;2022-11-10T06:46:31;15.50;63.00
61591;DHT22;57639;52.410;-1.966;2022-11-10T06:49:37;15.50;63.00
61591;DHT22;57639;52.410;-1.966;2022-11-10T06:52:43;15.50;63.00
61591;DHT22;57639;52.410;-1.966;2022-11-10T06:55:49;15.50;63.00
61591;DHT22;57639;52.410;-1.966;2022-11-10T06:58:55;15.50;63.00
61591;DHT22;57639;52.410;-1.966;2022-11-10T07:02:04;15.50;62.90
61591;DHT22;57639;52.410;-1.966;2022-11-10T07:05:10;15.50;62.90
61591;DHT22;57639;52.410;-1.966;2022-11-10T07:08:17;15.50;62.80
61591;DHT22;57639;52.410;-1.966;2022-11-10T07:11:23;15.50;62.90
61591;DHT22;57639;52.410;-1.966;2022-11-10T07:14:29;15.50;62.90
61591;DHT22;57639;52.410;-1.966;2022-11-10T07:17:41;15.50;63.00
61591;DHT22;57639;52.410;-1.966;2022-11-10T07:20:47;15.50;63.00
61591;DHT22;57639;52.410;-1.966;2022-11-10T07:23:53;15.50;63.00
61591;DHT22;57639;52.410;-1.966;2022-11-10T07:26:59;15.50;63.10
61591;DHT22;57639;52.410;-1.966;2022-11-10T07:30:06;15.50;63.40
61591;DHT22;57639;52.410;-1.966;2022-11-10T07:33:14;15.50;63.20
61591;DHT22;57639;52.410;-1.966;2022-11-10T07:36:20;15.50;63.40
61591;DHT22;57639;52.410;-1.966;2022-11-10T07:39:30;15.60;63.80
61591;DHT22;57639;52.410;-1.966;2022-11-10T07:42:38;15.60;63.70
61591;DHT22;57639;52.410;-1.966;2022-11-10T07:45:44;15.70;64.00
61591;DHT22;57639;52.410;-1.966;2022-11-10T07:48:53;15.80;64.20
61591;DHT22;57639;52.410;-1.966;2022-11-10T07:51:59;15.90;64.30
61591;DHT22;57639;52.410;-1.966;2022-11-10T07:55:06;16.00;64.40
61591;DHT22;57639;52.410;-1.966;2022-11-10T07:58:13;16.10;64.30
61591;DHT22;57639;52.410;-1.966;2022-11-10T08:01:20;16.20;64.20
61591;DHT22;57639;52.410;-1.966;2022-11-10T08:04:28;16.40;64.00
61591;DHT22;57639;52.410;-1.966;2022-11-10T08:07:34;16.50;63.80
61591;DHT22;57639;52.410;-1.966;2022-11-10T08:10:40;16.60;63.50
61591;DHT22;57639;52.410;-1.966;2022-11-10T08:13:46;16.70;63.20
61591;DHT22;57639;52.410;-1.966;2022-11-10T08:16:52;16.90;62.90
61591;DHT22;57639;52.410;-1.966;2022-11-10T08:20:01;17.00;62.70
61591;DHT22;57639;52.410;-1.966;2022-11-10T08:23:07;17.10;62.40
61591;DHT22;57639;52.410;-1.966;2022-11-10T08:26:13;17.10;62.10
61591;DHT22;57639;52.410;-1.966;2022-11-10T08:29:19;17.20;61.90
61591;DHT22;57639;52.410;-1.966;2022-11-10T08:32:25;17.30;61.80
61591;DHT22;57639;52.410;-1.966;2022-11-10T08:35:35;17.30;61.50
61591;DHT22;57639;52.410;-1.966;2022-11-10T08:38:42;17.40;61.50
61591;DHT22;57639;52.410;-1.966;2022-11-10T08:41:48;17.40;61.40
61591;DHT22;57639;52.410;-1.966;2022-11-10T08:44:54;17.40;61.40
61591;DHT22;57639;52.410;-1.966;2022-11-10T08:48:01;17.40;61.40
61591;DHT22;57639;52.410;-1.966;2022-11-10T08:51:10;17.40;61.40
61591;DHT22;57639;52.410;-1.966;2022-11-10T08:54:16;17.40;61.40
61591;DHT22;57639;52.410;-1.966;2022-11-10T08:57:22;17.30;61.50
61591;DHT22;57639;52.410;-1.966;2022-11-10T09:00:29;17.30;61.60
61591;DHT22;57639;52.410;-1.966;2022-11-10T09:03:35;17.20;61.60
61591;DHT22;57639;52.410;-1.966;2022-11-10T09:06:44;17.20;62.00
61591;DHT22;57639;52.410;-1.966;2022-11-10T09:09:50;17.20;61.90
61591;DHT22;57639;52.410;-1.966;2022-11-10T09:12:58;17.20;61.90
61591;DHT22;57639;52.410;-1.966;2022-11-10T09:16:05;17.20;62.20
61591;DHT22;57639;52.410;-1.966;2022-11-10T09:19:09;17.20;62.40
61591;DHT22;57639;52.410;-1.966;2022-11-10T09:22:18;17.30;62.40
61591;DHT22;57639;52.410;-1.966;2022-11-10T09:25:24;17.30;62.40
61591;DHT22;57639;52.410;-1.966;2022-11-10T09:28:30;17.30;62.40
61591;DHT22;57639;52.410;-1.966;2022-11-10T09:31:36;17.40;62.20
61591;DHT22;57639;52.410;-1.966;2022-11-10T09:34:48;17.40;62.10
61591;DHT22;57639;52.410;-1.966;2022-11-10T09:38:03;17.40;62.10
61591;DHT22;57639;52.410;-1.966;2022-11-10T09:41:11;17.50;62.00
61591;DHT22;57639;52.410;-1.966;2022-11-10T09:44:22;17.50;61.90
61591;DHT22;57639;52.410;-1.966;2022-11-10T09:47:35;17.60;61.80
61591;DHT22;57639;52.410;-1.966;2022-11-10T09:50:45;17.50;61.70
61591;DHT22;57639;52.410;-1.966;2022-11-10T09:54:02;17.60;61.70
61591;DHT22;57639;52.410;-1.966;2022-11-10T09:57:17;17.60;61.70
61591;DHT22;57639;52.410;-1.966;2022-11-10T10:00:27;17.60;61.70
61591;DHT22;57639;52.410;-1.966;2022-11-10T10:03:37;17.60;61.60
61591;DHT22;57639;52.410;-1.966;2022-11-10T10:06:55;17.60;61.60
61591;DHT22;57639;52.410;-1.966;2022-11-10T10:10:11;17.50;61.70
61591;DHT22;57639;52.410;-1.966;2022-11-10T10:13:31;17.50;61.80
61591;DHT22;57639;52.410;-1.966;2022-11-10T10:16:47;17.50;61.80
61591;DHT22;57639;52.410;-1.966;2022-11-10T10:20:00;17.50;61.90
61591;DHT22;57639;52.410;-1.966;2022-11-10T10:23:16;17.40;62.20
61591;DHT22;57639;52.410;-1.966;2022-11-10T10:26:31;17.40;62.40
61591;DHT22;57639;52.410;-1.966;2022-11-10T10:29:40;17.50;62.50
61591;DHT22;57639;52.410;-1.966;2022-11-10T10:32:51;17.50;62.80
61591;DHT22;57639;52.410;-1.966;2022-11-10T10:36:07;17.50;62.40
61591;DHT22;57639;52.410;-1.966;2022-11-10T10:39:16;17.50;62.30
61591;DHT22;57639;52.410;-1.966;2022-11-10T10:42:31;17.60;62.20
61591;DHT22;57639;52.410;-1.966;2022-11-10T10:45:40;17.60;62.10
61591;DHT22;57639;52.410;-1.966;2022-11-10T10:48:46;17.60;62.00
61591;DHT22;57639;52.410;-1.966;2022-11-10T10:52:02;17.70;61.90
61591;DHT22;57639;52.410;-1.966;2022-11-10T10:55:12;17.70;61.80
61591;DHT22;57639;52.410;-1.966;2022-11-10T10:58:24;17.70;61.80
61591;DHT22;57639;52.410;-1.966;2022-11-10T11:01:32;17.70;61.70
61591;DHT22;57639;52.410;-1.966;2022-11-10T11:04:38;17.70;61.80
61591;DHT22;57639;52.410;-1.966;2022-11-10T11:07:53;17.60;61.90
61591;DHT22;57639;52.410;-1.966;2022-11-10T11:11:08;17.70;62.00
61591;DHT22;57639;52.410;-1.966;2022-11-10T11:14:19;17.60;62.30
61591;DHT22;57639;52.410;-1.966;2022-11-10T11:17:25;17.60;62.30
61591;DHT22;57639;52.410;-1.966;2022-11-10T11:20:36;17.60;62.40
61591;DHT22;57639;52.410;-1.966;2022-11-10T11:27:15;17.60;62.60
61591;DHT22;57639;52.410;-1.966;2022-11-10T11:30:30;17.60;62.70
61591;DHT22;57639;52.410;-1.966;2022-11-10T11:33:47;17.60;63.10
61591;DHT22;57639;52.410;-1.966;2022-11-10T11:36:59;17.60;63.00
61591;DHT22;57639;52.410;-1.966;2022-11-10T11:40:17;17.70;62.80
61591;DHT22;57639;52.410;-1.966;2022-11-10T11:43:48;17.70;62.50
61591;DHT22;57639;52.410;-1.966;2022-11-10T11:47:04;17.80;62.50
61591;DHT22;57639;52.410;-1.966;2022-11-10T11:50:22;17.80;62.50
61591;DHT22;57639;52.410;-1.966;2022-11-10T11:53:41;17.90;62.40
61591;DHT22;57639;52.410;-1.966;2022-11-10T11:56:49;17.90;62.30
61591;DHT22;57639;52.410;-1.966;2022-11-10T12:00:03;17.90;62.20
61591;DHT22;57639;52.410;-1.966;2022-11-10T12:03:44;18.00;62.20
61591;DHT22;57639;52.410;-1.966;2022-11-10T12:07:04;18.00;62.20
61591;DHT22;57639;52.410;-1.966;2022-11-10T12:10:24;18.00;62.20
61591;DHT22;57639;52.410;-1.966;2022-11-10T12:13:37;18.00;62.20
61591;DHT22;57639;52.410;-1.966;2022-11-10T12:16:53;18.00;62.20
61591;DHT22;57639;52.410;-1.966;2022-11-10T12:20:17;18.00;62.20
61591;DHT22;57639;52.410;-1.966;2022-11-10T12:23:29;18.00;62.30
61591;DHT22;57639;52.410;-1.966;2022-11-10T12:26:42;17.90;62.30
61591;DHT22;57639;52.410;-1.966;2022-11-10T12:29:53;18.00;62.70
61591;DHT22;57639;52.410;-1.966;2022-11-10T12:33:07;18.00;63.50
61591;DHT22;57639;52.410;-1.966;2022-11-10T12:36:21;18.00;63.70
61591;DHT22;57639;52.410;-1.966;2022-11-10T12:39:40;18.00;63.70
61591;DHT22;57639;52.410;-1.966;2022-11-10T12:42:53;18.00;63.60
61591;DHT22;57639;52.410;-1.966;2022-11-10T12:46:02;18.00;63.80
61591;DHT22;57639;52.410;-1.966;2022-11-10T12:49:16;18.10;63.80
61591;DHT22;57639;52.410;-1.966;2022-11-10T12:52:29;18.10;63.90
61591;DHT22;57639;52.410;-1.966;2022-11-10T12:55:41;18.10;64.10
61591;DHT22;57639;52.410;-1.966;2022-11-10T12:58:47;18.20;64.10
61591;DHT22;57639;52.410;-1.966;2022-11-10T13:02:00;18.20;63.80
61591;DHT22;57639;52.410;-1.966;2022-11-10T13:05:22;18.30;63.80
61591;DHT22;57639;52.410;-1.966;2022-11-10T13:08:36;18.30;63.60
61591;DHT22;57639;52.410;-1.966;2022-11-10T13:15:51;18.40;63.10
61591;DHT22;57639;52.410;-1.966;2022-11-10T13:18:58;18.50;63.00
61591;DHT22;57639;52.410;-1.966;2022-11-10T13:22:11;18.40;62.80
61591;DHT22;57639;52.410;-1.966;2022-11-10T13:25:53;18.50;62.70
61591;DHT22;57639;52.410;-1.966;2022-11-10T13:29:01;18.50;62.60
61591;DHT22;57639;52.410;-1.966;2022-11-10T13:32:27;18.50;62.50
61591;DHT22;57639;52.410;-1.966;2022-11-10T13:35:52;18.40;62.60
61591;DHT22;57639;52.410;-1.966;2022-11-10T13:39:15;18.40;62.70
61591;DHT22;57639;52.410;-1.966;2022-11-10T13:42:24;18.40;62.70
61591;DHT22;57639;52.410;-1.966;2022-11-10T13:45:33;18.30;62.70
61591;DHT22;57639;52.410;-1.966;2022-11-10T13:48:42;18.30;62.70
61591;DHT22;57639;52.410;-1.966;2022-11-10T13:51:57;18.30;62.70
61591;DHT22;57639;52.410;-1.966;2022-11-10T13:55:31;18.20;62.80
61591;DHT22;57639;52.410;-1.966;2022-11-10T13:58:59;18.20;62.80
61591;DHT22;57639;52.410;-1.966;2022-11-10T14:06:22;18.10;62.80
61591;DHT22;57639;52.410;-1.966;2022-11-10T14:09:50;18.10;62.80
61591;DHT22;57639;52.410;-1.966;2022-11-10T14:13:15;18.10;62.60
61591;DHT22;57639;52.410;-1.966;2022-11-10T14:16:29;18.10;62.70
61591;DHT22;57639;52.410;-1.966;2022-11-10T14:19:38;18.20;62.60
61591;DHT22;57639;52.410;-1.966;2022-11-10T14:22:44;18.30;62.30
61591;DHT22;57639;52.410;-1.966;2022-11-10T14:25:54;18.40;62.00
61591;DHT22;57639;52.410;-1.966;2022-11-10T14:29:25;18.50;61.70
61591;DHT22;57639;52.410;-1.966;2022-11-10T14:32:34;18.50;61.50
61591;DHT22;57639;52.410;-1.966;2022-11-10T14:35:46;18.60;61.40
61591;DHT22;57639;52.410;-1.966;2022-11-10T14:38:53;18.60;61.30
61591;DHT22;57639;52.410;-1.966;2022-11-10T14:42:01;18.60;61.10
61591;DHT22;57639;52.410;-1.966;2022-11-10T14:45:14;18.60;61.10
61591;DHT22;57639;52.410;-1.966;2022-11-10T14:48:25;18.60;61.10
61591;DHT22;57639;52.410;-1.966;2022-11-10T14:51:33;18.50;61.10
61591;DHT22;57639;52.410;-1.966;2022-11-10T14:54:43;18.50;61.10
61591;DHT22;57639;52.410;-1.966;2022-11-10T14:57:53;18.50;61.20
61591;DHT22;57639;52.410;-1.966;2022-11-10T15:01:00;18.50;61.40
61591;DHT22;57639;52.410;-1.966;2022-11-10T15:04:10;18.50;61.40
61591;DHT22;57639;52.410;-1.966;2022-11-10T15:07:19;18.50;61.60
61591;DHT22;57639;52.410;-1.966;2022-11-10T15:10:27;18.60;61.70
61591;DHT22;57639;52.410;-1.966;2022-11-10T15:13:36;18.60;61.90
61591;DHT22;57639;52.410;-1.966;2022-11-10T15:16:59;18.60;61.90
61591;DHT22;57639;52.410;-1.966;2022-11-10T15:20:33;18.60;61.90
61591;DHT22;57639;52.410;-1.966;2022-11-10T15:23:44;18.60;61.90
61591;DHT22;57639;52.410;-1.966;2022-11-10T15:26:57;18.70;61.90
61591;DHT22;57639;52.410;-1.966;2022-11-10T15:30:20;18.70;61.80
61591;DHT22;57639;52.410;-1.966;2022-11-10T15:33:31;18.80;61.70
61591;DHT22;57639;52.410;-1.966;2022-11-10T15:36:42;18.80;61.70
61591;DHT22;57639;52.410;-1.966;2022-11-10T15:39:48;18.80;61.60
61591;DHT22;57639;52.410;-1.966;2022-11-10T15:43:09;18.90;61.60
61591;DHT22;57639;52.410;-1.966;2022-11-10T15:46:18;19.00;61.60
61591;DHT22;57639;52.410;-1.966;2022-11-10T15:49:26;19.00;61.50
61591;DHT22;57639;52.410;-1.966;2022-11-10T15:52:37;19.10;61.40
61591;DHT22;57639;52.410;-1.966;2022-11-10T15:55:47;19.10;61.30
61591;DHT22;57639;52.410;-1.966;2022-11-10T15:58:56;19.10;61.30
61591;DHT22;57639;52.410;-1.966;2022-11-10T16:02:07;19.20;61.20
61591;DHT22;57639;52.410;-1.966;2022-11-10T16:05:14;19.20;61.20
61591;DHT22;57639;52.410;-1.966;2022-11-10T16:08:25;19.30;61.10
61591;DHT22;57639;52.410;-1.966;2022-11-10T16:11:34;19.30;61.10
61591;DHT22;57639;52.410;-1.966;2022-11-10T16:14:38;19.30;61.10
61591;DHT22;57639;52.410;-1.966;2022-11-10T16:17:44;19.30;61.00
61591;DHT22;57639;52.410;-1.966;2022-11-10T16:20:51;19.40;61.00
61591;DHT22;57639;52.410;-1.966;2022-11-10T16:24:00;19.40;61.00
61591;DHT22;57639;52.410;-1.966;2022-11-10T16:27:09;19.40;60.80
61591;DHT22;57639;52.410;-1.966;2022-11-10T16:30:15;19.50;60.60
61591;DHT22;57639;52.410;-1.966;2022-11-10T16:33:22;19.50;60.90
61591;DHT22;57639;52.410;-1.966;2022-11-10T16:36:30;19.40;60.90
61591;DHT22;57639;52.410;-1.966;2022-11-10T16:39:40;19.40;60.80
61591;DHT22;57639;52.410;-1.966;2022-11-10T16:42:47;19.50;60.90
61591;DHT22;57639;52.410;-1.966;2022-11-10T16:45:54;19.50;60.80
61591;DHT22;57639;52.410;-1.966;2022-11-10T16:49:03;19.50;61.40
61591;DHT22;57639;52.410;-1.966;2022-11-10T16:52:12;19.50;61.30
61591;DHT22;57639;52.410;-1.966;2022-11-10T16:55:22;19.50;61.20
61591;DHT22;57639;52.410;-1.966;2022-11-10T16:58:28;19.50;61.20
61591;DHT22;57639;52.410;-1.966;2022-11-10T17:01:35;19.60;61.10
61591;DHT22;57639;52.410;-1.966;2022-11-10T17:04:42;19.60;61.00
61591;DHT22;57639;52.410;-1.966;2022-11-10T17:07:48;19.60;61.00
61591;DHT22;57639;52.410;-1.966;2022-11-10T17:10:57;19.60;60.90
61591;DHT22;57639;52.410;-1.966;2022-11-10T17:14:03;19.60;60.80
61591;DHT22;57639;52.410;-1.966;2022-11-10T17:17:15;19.60;60.80
61591;DHT22;57639;52.410;-1.966;2022-11-10T17:20:25;19.70;60.80
61591;DHT22;57639;52.410;-1.966;2022-11-10T17:23:33;19.60;60.70
61591;DHT22;57639;52.410;-1.966;2022-11-10T17:26:42;19.70;60.70
61591;DHT22;57639;52.410;-1.966;2022-11-10T17:29:49;19.70;60.70
61591;DHT22;57639;52.410;-1.966;2022-11-10T17:32:55;19.70;60.70
61591;DHT22;57639;52.410;-1.966;2022-11-10T17:36:01;19.70;60.70
61591;DHT22;57639;52.410;-1.966;2022-11-10T17:39:11;19.70;60.70
61591;DHT22;57639;52.410;-1.966;2022-11-10T17:42:20;19.70;60.60
61591;DHT22;57639;52.410;-1.966;2022-11-10T17:45:27;19.70;60.60
61591;DHT22;57639;52.410;-1.966;2022-11-10T17:48:33;19.70;60.60
61591;DHT22;57639;52.410;-1.966;2022-11-10T17:51:39;19.80;60.70
61591;DHT22;57639;52.410;-1.966;2022-11-10T17:54:46;19.80;61.10
61591;DHT22;57639;52.410;-1.966;2022-11-10T17:57:55;19.80;61.40
61591;DHT22;57639;52.410;-1.966;2022-11-10T18:01:02;19.90;61.70
61591;DHT22;57639;52.410;-1.966;2022-11-10T18:04:12;19.90;61.60
61591;DHT22;57639;52.410;-1.966;2022-11-10T18:07:18;19.90;61.50
61591;DHT22;57639;52.410;-1.966;2022-11-10T18:10:24;19.90;61.50
61591;DHT22;57639;52.410;-1.966;2022-11-10T18:13:33;20.00;61.10
61591;DHT22;57639;52.410;-1.966;2022-11-10T18:16:39;20.00;61.00
61591;DHT22;57639;52.410;-1.966;2022-11-10T18:19:45;20.00;61.00
61591;DHT22;57639;52.410;-1.966;2022-11-10T18:22:51;20.10;61.10
61591;DHT22;57639;52.410;-1.966;2022-11-10T18:26:02;20.00;61.00
61591;DHT22;57639;52.410;-1.966;2022-11-10T18:29:11;20.00;61.00
61591;DHT22;57639;52.410;-1.966;2022-11-10T18:32:17;20.00;61.00
61591;DHT22;57639;52.410;-1.966;2022-11-10T18:35:24;20.00;61.00
61591;DHT22;57639;52.410;-1.966;2022-11-10T18:38:30;20.00;61.00
61591;DHT22;57639;52.410;-1.966;2022-11-10T18:41:37;20.00;61.10
61591;DHT22;57639;52.410;-1.966;2022-11-10T18:44:58;19.90;61.00
61591;DHT22;57639;52.410;-1.966;2022-11-10T18:48:05;19.80;61.50
61591;DHT22;57639;52.410;-1.966;2022-11-10T18:51:11;19.80;61.70
61591;DHT22;57639;52.410;-1.966;2022-11-10T18:54:17;19.70;61.90
61591;DHT22;57639;52.410;-1.966;2022-11-10T18:57:23;19.70;62.50
61591;DHT22;57639;52.410;-1.966;2022-11-10T19:00:32;19.70;63.20
61591;DHT22;57639;52.410;-1.966;2022-11-10T19:03:38;19.70;63.50
61591;DHT22;57639;52.410;-1.966;2022-11-10T19:06:44;19.70;64.10
61591;DHT22;57639;52.410;-1.966;2022-11-10T19:09:50;19.60;65.70
61591;DHT22;57639;52.410;-1.966;2022-11-10T19:12:57;19.60;66.40
61591;DHT22;57639;52.410;-1.966;2022-11-10T19:16:09;19.60;66.40
61591;DHT22;57639;52.410;-1.966;2022-11-10T19:19:16;19.60;66.50
61591;DHT22;57639;52.410;-1.966;2022-11-10T19:22:23;19.60;66.60
61591;DHT22;57639;52.410;-1.966;2022-11-10T19:25:31;19.60;66.50
61591;DHT22;57639;52.410;-1.966;2022-11-10T19:28:40;19.50;66.00
61591;DHT22;57639;52.410;-1.966;2022-11-10T19:31:50;19.50;65.70
61591;DHT22;57639;52.410;-1.966;2022-11-10T19:34:58;19.40;65.60
61591;DHT22;57639;52.410;-1.966;2022-11-10T19:38:06;19.40;65.40
61591;DHT22;57639;52.410;-1.966;2022-11-10T19:41:15;19.40;65.30
61591;DHT22;57639;52.410;-1.966;2022-11-10T19:44:22;19.40;65.10
61591;DHT22;57639;52.410;-1.966;2022-11-10T19:47:31;19.30;65.00